Time;durP1;ratioP1;P1;durP2;ratioP2;P2;SDS_P1;SDS_P2;PMS_P1;PMS_P2;Temp;Humidity;BMP_temperature;BMP_pressure;BME280_temperature;BME280_humidity;BME280_pressure;Samples;Min_cycle;Max_cycle;Signal;HPM_P1;HPM_P2
2021/12/04 08:19:23;;;;;;;8.30;7.00;;;5.60;99.90;;;;;;5131209;27;21005;-77
2021/12/04 08:21:50;;;;;;;7.30;5.93;;;5.40;99.90;;;;;;5117638;27;20220;-79
2021/12/04 08:24:18;;;;;;;7.07;6.33;;;5.30;99.90;;;;;;5120113;28;20203;-78
2021/12/04 08:26:46;;;;;;;8.50;6.40;;;5.30;99.90;;;;;;5120222;28;20199;-77
2021/12/04 08:29:16;;;;;;;7.73;6.90;;;5.20;99.90;;;;;;5116014;27;20685;-77
2021/12/04 08:31:44;;;;;;;7.57;6.83;;;5.20;99.90;;;;;;5069518;27;20234;-79
2021/12/04 08:34:11;;;;;;;7.07;6.20;;;5.10;99.90;;;;;;5064251;28;20201;-77
2021/12/04 08:36:40;;;;;;;6.80;5.87;;;5.10;99.90;;;;;;5063896;28;20194;-78
2021/12/04 08:39:08;;;;;;;8.93;7.00;;;5.20;99.90;;;;;;5065187;28;20211;-77
2021/12/04 08:41:36;;;;;;;8.30;7.17;;;5.10;99.90;;;;;;5060543;28;20290;-77
2021/12/04 08:44:04;;;;;;;7.57;6.30;;;5.10;99.90;;;;;;5060967;28;20678;-79
2021/12/04 08:46:34;;;;;;;7.83;7.03;;;5.10;99.90;;;;;;5062684;28;20213;-76
2021/12/04 08:49:03;;;;;;;7.73;6.90;;;5.10;99.90;;;;;;5063485;28;20212;-77
2021/12/04 08:51:30;;;;;;;9.33;7.53;;;5.10;99.90;;;;;;5064443;28;20217;-77
2021/12/04 08:54:19;;;;;;;9.97;7.40;;;5.10;99.90;;;;;;5057253;28;20223;-76
2021/12/04 08:56:46;;;;;;;8.17;7.20;;;5.10;99.90;;;;;;5064238;28;20203;-77
2021/12/04 08:59:14;;;;;;;8.00;6.93;;;5.10;99.90;;;;;;5067153;28;20209;-76
2021/12/04 09:01:43;;;;;;;10.47;7.37;;;5.20;99.90;;;;;;5058738;28;20216;-76
2021/12/04 09:04:18;;;;;;;7.87;7.07;;;5.20;99.90;;;;;;5063524;28;20527;-76
2021/12/04 09:06:45;;;;;;;9.57;7.40;;;5.30;99.90;;;;;;5056926;28;20203;-77
2021/12/04 09:09:15;;;;;;;10.00;7.17;;;5.50;99.90;;;;;;5061087;28;20214;-80
2021/12/04 09:11:49;;;;;;;7.90;6.73;;;5.40;99.90;;;;;;5066285;28;20215;-78
2021/12/04 09:14:21;;;;;;;7.50;6.80;;;5.30;99.90;;;;;;5063581;28;20199;-76
2021/12/04 09:16:51;;;;;;;7.80;6.73;;;5.40;99.90;;;;;;5059708;28;20223;-77
2021/12/04 09:19:18;;;;;;;9.40;7.17;;;5.30;99.90;;;;;;5063702;28;20214;-78
2021/12/04 09:21:46;;;;;;;8.37;7.10;;;5.30;99.90;;;;;;5057712;28;20234;-77
2021/12/04 09:24:15;;;;;;;8.60;7.30;;;5.30;99.90;;;;;;5063328;28;20200;-77
2021/12/04 09:26:55;;;;;;;9.17;7.80;;;5.30;99.90;;;;;;5063543;28;20192;-79
2021/12/04 09:29:36;;;;;;;9.33;7.10;;;5.30;99.90;;;;;;5044158;28;20216;-78
2021/12/04 09:32:27;;;;;;;10.47;7.87;;;5.20;99.90;;;;;;5052013;28;20218;-78
2021/12/04 09:35:18;;;;;;;8.67;7.60;;;5.20;99.90;;;;;;5052787;28;20206;-79
2021/12/04 10:00:37;;;;;;;8.67;7.07;;;5.30;99.90;;;;;;5044686;28;20194;-79
2021/12/04 10:06:24;;;;;;;8.43;7.50;;;5.40;99.90;;;;;;5054919;28;20649;-78
2021/12/04 10:12:01;;;;;;;10.97;7.33;;;5.40;99.90;;;;;;5030084;28;20221;-79
2021/12/04 10:14:57;;;;;;;8.27;6.77;;;5.50;99.90;;;;;;5053488;28;20204;-79
2021/12/04 10:17:45;;;;;;;8.60;7.40;;;5.50;99.90;;;;;;5049354;22;20886;-75
2021/12/04 10:20:22;;;;;;;7.77;6.80;;;5.60;99.90;;;;;;5012493;28;20226;-75
2021/12/04 10:23:26;;;;;;;8.50;6.50;;;5.50;99.90;;;;;;5008956;28;20197;-76
2021/12/04 10:34:44;;;;;;;6.90;6.20;;;5.70;99.90;;;;;;5013703;28;20181;-76
2021/12/04 10:37:14;;;;;;;8.00;6.03;;;5.70;99.90;;;;;;4994390;28;20214;-76
2021/12/04 10:39:42;;;;;;;6.60;6.00;;;5.60;99.90;;;;;;5012254;28;20549;-75
2021/12/04 10:42:13;;;;;;;8.20;6.53;;;5.60;99.90;;;;;;5011291;28;20210;-75
2021/12/04 10:44:48;;;;;;;8.40;6.70;;;5.70;99.90;;;;;;5022725;28;20196;-75
2021/12/04 10:47:22;;;;;;;8.60;6.17;;;5.80;99.90;;;;;;5025416;28;20245;-76
2021/12/04 10:49:59;;;;;;;6.33;5.73;;;5.90;99.90;;;;;;5025231;28;20218;-75
2021/12/04 10:52:34;;;;;;;6.30;5.70;;;5.90;99.90;;;;;;5009248;28;20561;-75
2021/12/04 10:55:13;;;;;;;8.90;5.77;;;5.80;99.90;;;;;;5010000;28;20209;-76
2021/12/04 10:58:12;;;;;;;8.90;5.77;;;5.80;99.90;;;;;;5025908;28;20694;-76
2021/12/04 11:01:25;;;;;;;7.23;5.90;;;5.80;99.90;;;;;;5004772;28;20676;-76
2021/12/04 11:04:21;;;;;;;7.10;5.93;;;5.90;99.90;;;;;;4998965;28;20198;-76
2021/12/04 11:07:20;;;;;;;6.37;5.60;;;5.90;99.90;;;;;;5006772;28;20225;-77
2021/12/04 11:24:11;;;;;;;5.50;5.00;;;6.00;99.90;;;;;;4995647;28;20209;-75
2021/12/04 11:27:05;;;;;;;5.17;4.67;;;6.30;99.90;;;;;;5005635;28;20691;-76
2021/12/04 11:38:13;;;;;;;5.10;4.17;;;6.20;99.90;;;;;;5010510;28;20201;-75
2021/12/04 11:41:10;;;;;;;4.50;4.10;;;6.00;99.90;;;;;;5012781;28;20560;-75
2021/12/04 11:43:51;;;;;;;4.60;4.13;;;6.00;99.90;;;;;;5008665;28;20211;-76
2021/12/04 11:46:22;;;;;;;4.50;4.10;;;5.90;99.90;;;;;;5026237;28;20221;-76
2021/12/04 11:48:49;;;;;;;4.40;4.00;;;6.00;99.90;;;;;;5010107;28;20224;-75
2021/12/04 11:51:19;;;;;;;4.17;3.77;;;5.90;99.90;;;;;;5003875;28;20208;-75
2021/12/04 11:53:47;;;;;;;4.10;3.73;;;5.90;99.90;;;;;;5004185;28;20577;-75
2021/12/04 11:56:18;;;;;;;4.20;3.80;;;5.90;99.90;;;;;;5014960;28;20240;-75
2021/12/04 11:58:49;;;;;;;4.13;3.73;;;5.90;99.90;;;;;;5008325;28;20193;-75
2021/12/04 12:01:28;;;;;;;4.10;3.73;;;6.00;99.90;;;;;;5011719;28;20205;-75
2021/12/04 12:03:58;;;;;;;4.13;3.73;;;6.10;99.90;;;;;;5009701;28;20208;-75
2021/12/04 12:06:32;;;;;;;3.80;3.50;;;6.10;99.90;;;;;;5008135;28;20575;-75
2021/12/04 12:09:07;;;;;;;3.63;3.33;;;6.00;99.90;;;;;;5010035;28;20225;-75
2021/12/04 12:11:37;;;;;;;4.67;3.07;;;5.90;99.90;;;;;;5012562;28;20201;-75
2021/12/04 12:14:10;;;;;;;3.80;3.50;;;5.90;99.90;;;;;;5001427;28;20201;-75
2021/12/04 12:16:47;;;;;;;4.23;3.83;;;6.00;99.90;;;;;;5008144;28;20238;-75
2021/12/04 12:19:25;;;;;;;3.60;3.30;;;6.10;99.90;;;;;;5004242;28;20202;-75
2021/12/04 12:21:58;;;;;;;3.83;3.50;;;6.10;99.90;;;;;;5003642;28;20200;-75
2021/12/04 12:27:45;;;;;;;3.80;3.40;;;6.10;99.90;;;;;;5008962;28;20214;-75
2021/12/04 12:33:26;;;;;;;4.60;3.70;;;6.00;99.90;;;;;;5000766;28;20547;-75
2021/12/04 12:36:02;;;;;;;3.80;3.47;;;6.00;99.90;;;;;;5006690;28;20233;-75
2021/12/04 12:38:35;;;;;;;3.77;3.40;;;6.00;99.90;;;;;;5008877;28;20193;-75
2021/12/04 12:41:04;;;;;;;3.83;3.53;;;6.00;99.90;;;;;;5010599;28;20196;-75
2021/12/04 12:43:45;;;;;;;4.13;3.73;;;6.00;99.90;;;;;;5010542;28;20202;-75
2021/12/04 12:46:13;;;;;;;3.90;3.60;;;6.10;99.90;;;;;;5006122;28;20218;-76
2021/12/04 12:48:53;;;;;;;4.17;3.77;;;6.20;99.90;;;;;;5022009;28;20206;-76
2021/12/04 12:51:32;;;;;;;3.93;3.53;;;6.20;99.90;;;;;;5008390;28;20202;-75
2021/12/04 12:54:02;;;;;;;3.90;3.10;;;6.20;99.90;;;;;;5011638;28;20201;-76
2021/12/04 12:56:32;;;;;;;3.80;3.30;;;6.30;99.90;;;;;;5010306;28;20212;-75
2021/12/04 12:59:05;;;;;;;4.23;3.33;;;6.20;99.90;;;;;;5009617;28;20199;-75
2021/12/04 13:13:43;;;;;;;3.93;3.53;;;6.40;99.90;;;;;;5004481;28;20199;-76
2021/12/04 13:16:18;;;;;;;3.70;3.37;;;6.40;99.90;;;;;;4988350;28;20230;-76
2021/12/04 13:18:51;;;;;;;5.10;3.60;;;6.50;99.90;;;;;;5008026;28;20202;-76
2021/12/04 13:21:19;;;;;;;3.30;2.93;;;6.30;99.90;;;;;;5006918;28;20199;-76
2021/12/04 13:23:52;;;;;;;4.10;3.70;;;6.30;99.90;;;;;;5010079;28;20203;-76
2021/12/04 13:26:25;;;;;;;4.17;3.87;;;6.40;99.90;;;;;;5003915;28;20234;-76
2021/12/04 13:28:53;;;;;;;3.80;3.50;;;6.50;99.90;;;;;;5010280;28;20204;-76
2021/12/04 13:31:22;;;;;;;4.07;3.77;;;6.40;99.90;;;;;;5014857;28;20224;-77
2021/12/04 13:33:51;;;;;;;3.77;3.47;;;6.50;99.90;;;;;;5010881;28;20202;-76
2021/12/04 13:36:21;;;;;;;3.37;3.07;;;6.60;99.90;;;;;;5024580;28;20217;-76
2021/12/04 13:38:52;;;;;;;3.67;3.37;;;6.50;99.90;;;;;;5021317;28;20199;-76
2021/12/04 13:41:20;;;;;;;3.77;3.47;;;6.50;99.90;;;;;;5013096;28;20211;-76
2021/12/04 13:43:55;;;;;;;3.57;3.27;;;6.70;99.90;;;;;;5014397;28;20198;-75
2021/12/04 13:46:40;;;;;;;4.17;3.83;;;6.70;99.90;;;;;;5016357;28;20226;-77
2021/12/04 13:49:31;;;;;;;3.97;3.47;;;6.80;99.90;;;;;;5014286;28;20195;-76
2021/12/04 13:52:01;;;;;;;3.93;3.63;;;6.80;99.90;;;;;;5013910;28;20206;-77
2021/12/04 13:54:33;;;;;;;3.20;3.00;;;6.80;99.90;;;;;;5023492;28;20208;-76
2021/12/04 13:57:17;;;;;;;5.27;3.67;;;6.70;99.90;;;;;;5009375;28;20223;-77
2021/12/04 13:59:47;;;;;;;3.90;3.60;;;6.50;99.90;;;;;;5004201;28;20199;-76
2021/12/04 14:02:43;;;;;;;4.17;3.73;;;6.50;99.90;;;;;;5013185;28;20221;-76
2021/12/04 14:05:13;;;;;;;5.07;4.63;;;6.50;99.90;;;;;;5007254;28;20242;-76
2021/12/04 14:07:47;;;;;;;4.77;4.37;;;6.40;99.90;;;;;;5005486;28;20216;-76
2021/12/04 14:10:17;;;;;;;4.33;4.00;;;6.40;99.90;;;;;;5011164;28;20215;-76
2021/12/04 14:12:45;;;;;;;4.83;4.37;;;6.60;99.90;;;;;;5005181;28;20195;-76
2021/12/04 14:15:15;;;;;;;5.07;4.57;;;6.40;99.90;;;;;;5010462;28;20207;-76
2021/12/04 14:17:44;;;;;;;5.93;5.33;;;6.40;99.90;;;;;;5013744;28;20625;-76
2021/12/04 14:20:21;;;;;;;5.50;5.00;;;6.30;99.90;;;;;;5013340;28;20196;-76
2021/12/04 14:22:51;;;;;;;6.63;5.83;;;6.40;99.90;;;;;;5015009;28;20205;-76
2021/12/04 14:25:53;;;;;;;5.53;5.03;;;6.50;99.90;;;;;;5001611;28;20208;-76
2021/12/04 14:28:24;;;;;;;5.57;4.90;;;6.60;99.90;;;;;;5001433;28;20200;-76
2021/12/04 14:30:52;;;;;;;6.83;6.10;;;6.60;99.90;;;;;;5007610;28;20220;-76
2021/12/04 14:33:23;;;;;;;5.33;4.83;;;6.60;99.90;;;;;;5011990;28;20207;-76
2021/12/04 14:35:52;;;;;;;6.73;6.10;;;6.50;99.90;;;;;;5012392;28;20223;-76
2021/12/04 14:38:24;;;;;;;5.67;5.17;;;6.60;99.90;;;;;;5012494;28;20207;-77
2021/12/04 14:40:54;;;;;;;7.03;5.70;;;6.70;99.90;;;;;;5008881;28;20192;-76
2021/12/04 14:43:23;;;;;;;6.27;5.77;;;6.70;99.90;;;;;;5009442;28;20211;-76
2021/12/04 14:45:55;;;;;;;5.93;5.43;;;6.50;99.90;;;;;;5011886;28;20229;-76
2021/12/04 14:48:27;;;;;;;6.70;6.07;;;6.30;99.90;;;;;;5001180;28;20214;-75
2021/12/04 14:51:02;;;;;;;6.67;5.60;;;6.30;99.90;;;;;;5009682;28;20214;-76
2021/12/04 14:53:30;;;;;;;8.40;6.80;;;6.20;99.90;;;;;;5015618;28;20186;-75
2021/12/04 14:55:59;;;;;;;6.77;6.17;;;6.20;99.90;;;;;;5009570;28;20252;-76
2021/12/04 14:58:28;;;;;;;7.53;6.63;;;6.10;99.90;;;;;;5018171;28;20206;-76
2021/12/04 15:01:01;;;;;;;7.70;6.93;;;6.00;99.90;;;;;;5013272;28;20199;-75
2021/12/04 15:03:36;;;;;;;9.37;8.40;;;5.90;99.90;;;;;;5014412;28;20198;-75
2021/12/04 15:06:07;;;;;;;7.80;7.00;;;5.90;99.90;;;;;;5013720;28;20219;-75
2021/12/04 15:08:36;;;;;;;8.23;7.47;;;6.00;99.90;;;;;;5033631;28;20667;-76
2021/12/04 15:11:06;;;;;;;8.23;7.43;;;6.10;99.90;;;;;;5027595;28;20215;-75
2021/12/04 15:13:39;;;;;;;10.53;8.27;;;6.20;99.90;;;;;;5010185;28;20203;-76
2021/12/04 15:16:08;;;;;;;7.80;7.10;;;6.40;99.90;;;;;;5013050;28;20233;-76
2021/12/04 15:18:39;;;;;;;7.57;6.80;;;6.20;99.90;;;;;;5010932;28;20215;-75
2021/12/04 15:21:13;;;;;;;6.30;5.80;;;6.10;99.90;;;;;;5001096;28;20208;-75
2021/12/04 15:23:41;;;;;;;8.43;5.43;;;6.80;99.90;;;;;;5013668;28;20199;-75
2021/12/04 15:26:12;;;;;;;9.53;7.60;;;7.80;99.90;;;;;;5011658;28;20580;-75
2021/12/04 15:28:45;;;;;;;7.10;6.40;;;8.30;99.90;;;;;;5026006;28;20216;-76
2021/12/04 15:31:13;;;;;;;8.10;7.40;;;7.70;99.90;;;;;;5006491;28;20225;-76
2021/12/04 15:33:45;;;;;;;7.97;6.97;;;6.90;99.90;;;;;;5004868;28;20555;-75
2021/12/04 15:36:22;;;;;;;7.70;7.00;;;6.70;99.90;;;;;;4999381;28;20224;-75
2021/12/04 15:38:52;;;;;;;8.50;7.63;;;6.50;99.90;;;;;;5010399;28;20696;-75
2021/12/04 15:41:39;;;;;;;7.93;7.13;;;6.00;99.90;;;;;;5006700;28;20209;-75
2021/12/04 15:44:24;;;;;;;6.77;6.07;;;5.90;99.90;;;;;;5005831;28;20594;-75
2021/12/04 15:47:09;;;;;;;5.00;4.57;;;5.70;99.90;;;;;;5011381;28;20237;-76
2021/12/04 15:49:57;;;;;;;4.87;4.47;;;5.60;99.90;;;;;;4997414;28;20213;-77
2021/12/04 15:53:10;;;;;;;5.70;5.07;;;5.50;99.90;;;;;;5011929;28;20231;-77
2021/12/04 15:55:41;;;;;;;5.33;4.83;;;5.60;99.90;;;;;;5004401;28;20204;-76
2021/12/04 15:58:24;;;;;;;4.73;4.33;;;5.50;99.90;;;;;;5010569;28;20284;-76
2021/12/04 16:00:53;;;;;;;5.07;4.57;;;5.50;99.90;;;;;;5010254;28;20217;-76
2021/12/04 16:03:25;;;;;;;5.57;5.00;;;5.40;99.90;;;;;;5006348;28;20205;-77
2021/12/04 16:05:56;;;;;;;6.03;5.50;;;5.40;99.90;;;;;;5009631;28;20241;-76
2021/12/04 16:08:26;;;;;;;5.50;5.00;;;5.40;99.90;;;;;;4996752;28;20197;-76
2021/12/04 16:10:55;;;;;;;7.00;5.57;;;5.40;99.90;;;;;;5006803;28;20229;-76
2021/12/04 16:13:34;;;;;;;6.70;6.00;;;5.40;99.90;;;;;;5009772;28;20201;-77
2021/12/04 16:16:11;;;;;;;6.20;5.60;;;5.40;99.90;;;;;;5010657;28;20243;-76
2021/12/04 16:18:39;;;;;;;6.97;5.87;;;5.40;99.90;;;;;;5025979;28;20213;-76
2021/12/04 16:21:20;;;;;;;7.40;6.23;;;5.40;99.90;;;;;;5020741;28;20205;-77
2021/12/04 16:23:50;;;;;;;7.63;6.30;;;5.40;99.90;;;;;;5000547;28;20211;-77
2021/12/04 16:26:19;;;;;;;6.53;5.93;;;5.40;99.90;;;;;;5016117;28;20705;-77
2021/12/04 16:29:02;;;;;;;6.80;6.10;;;5.40;99.90;;;;;;5006170;28;20229;-77
2021/12/04 16:31:54;;;;;;;7.43;6.50;;;5.40;99.90;;;;;;5010224;28;20218;-76
2021/12/04 16:37:14;;;;;;;6.43;5.83;;;5.40;99.90;;;;;;5007941;28;20216;-77
2021/12/04 16:39:42;;;;;;;6.97;6.20;;;5.30;99.90;;;;;;5027041;28;20199;-77
2021/12/04 16:42:10;;;;;;;7.37;6.43;;;5.30;99.90;;;;;;5012101;28;20287;-76
2021/12/04 16:47:11;;;;;;;7.70;6.90;;;5.30;99.90;;;;;;4990171;28;20217;-77
2021/12/04 16:49:41;;;;;;;8.20;6.27;;;5.30;99.90;;;;;;5001972;28;20681;-77
2021/12/04 16:58:03;;;;;;;7.67;6.13;;;5.30;99.90;;;;;;4945362;28;20226;-77
2021/12/04 17:00:31;;;;;;;8.37;7.10;;;5.30;99.90;;;;;;5000801;28;20228;-77
2021/12/04 17:03:00;;;;;;;7.70;6.90;;;5.30;99.90;;;;;;4994699;28;20194;-76
2021/12/04 17:05:32;;;;;;;8.00;7.20;;;5.40;99.90;;;;;;4975232;28;20233;-77
2021/12/04 17:08:10;;;;;;;7.70;6.73;;;5.30;99.90;;;;;;4980848;28;20219;-77
2021/12/04 17:10:47;;;;;;;8.57;7.57;;;5.40;99.90;;;;;;4976431;28;20194;-77
2021/12/04 17:13:14;;;;;;;8.80;7.50;;;5.40;99.90;;;;;;4981750;28;20209;-77
2021/12/04 17:16:00;;;;;;;9.97;8.47;;;5.30;99.90;;;;;;4976674;28;20225;-77
2021/12/04 17:19:08;;;;;;;10.53;8.33;;;5.30;99.90;;;;;;4984831;28;20208;-77
2021/12/04 17:21:38;;;;;;;11.23;9.07;;;5.30;99.90;;;;;;4997551;28;20224;-77
2021/12/04 17:24:18;;;;;;;12.07;9.43;;;5.30;99.90;;;;;;4973457;28;20206;-77
2021/12/04 17:26:46;;;;;;;12.57;10.03;;;5.30;99.90;;;;;;4984034;28;20239;-77
2021/12/04 17:29:24;;;;;;;15.33;11.20;;;5.30;99.90;;;;;;4988889;28;20204;-77
2021/12/04 17:31:52;;;;;;;14.53;10.83;;;5.30;99.90;;;;;;4973213;28;20220;-76
2021/12/04 17:34:26;;;;;;;14.33;11.40;;;5.30;99.90;;;;;;4988385;28;20196;-77
2021/12/04 17:37:05;;;;;;;15.67;12.00;;;5.40;99.90;;;;;;4968755;28;20235;-77
2021/12/04 17:39:44;;;;;;;14.23;11.00;;;5.40;99.90;;;;;;4994371;28;20196;-76
2021/12/04 17:42:16;;;;;;;15.20;12.40;;;5.30;99.90;;;;;;4978760;28;20204;-77
2021/12/04 17:44:43;;;;;;;15.00;12.77;;;5.40;99.90;;;;;;4983592;28;20207;-76
2021/12/04 17:47:11;;;;;;;16.87;14.30;;;5.50;99.90;;;;;;4960693;28;20201;-77
2021/12/04 17:49:45;;;;;;;18.03;15.57;;;5.50;99.90;;;;;;4963310;28;20221;-77
2021/12/04 17:52:16;;;;;;;19.90;16.00;;;5.50;99.90;;;;;;4958701;28;20695;-77
2021/12/04 17:55:08;;;;;;;18.40;15.60;;;5.60;99.90;;;;;;4961486;28;20794;-77
2021/12/04 17:57:49;;;;;;;18.87;14.20;;;5.60;99.90;;;;;;4954705;28;20646;-77
2021/12/04 18:00:20;;;;;;;16.83;13.40;;;5.70;99.90;;;;;;4956849;28;20205;-77
2021/12/04 18:02:49;;;;;;;12.93;10.90;;;5.70;99.90;;;;;;4954443;28;20222;-77
2021/12/04 18:05:20;;;;;;;13.37;10.03;;;5.70;99.90;;;;;;4953419;28;20227;-77
2021/12/04 18:07:48;;;;;;;10.67;8.77;;;5.70;99.90;;;;;;4950489;28;20211;-77
2021/12/04 18:10:16;;;;;;;8.03;7.23;;;5.80;99.90;;;;;;4961117;28;20216;-77
2021/12/04 18:12:47;;;;;;;8.17;7.03;;;5.80;99.90;;;;;;4958832;28;20214;-77
2021/12/04 18:15:19;;;;;;;7.90;6.10;;;5.80;99.90;;;;;;4966503;28;20245;-77
2021/12/04 18:17:50;;;;;;;6.47;5.80;;;5.80;99.90;;;;;;4974012;28;20208;-77
2021/12/04 18:20:20;;;;;;;6.20;5.43;;;5.80;99.90;;;;;;4955172;28;20214;-77
2021/12/04 18:23:12;;;;;;;7.03;5.83;;;5.80;99.90;;;;;;4964674;28;20201;-77
2021/12/04 18:25:41;;;;;;;8.23;6.40;;;5.80;99.90;;;;;;4960568;28;20219;-77
2021/12/04 18:28:21;;;;;;;10.40;6.27;;;5.80;99.90;;;;;;4972840;28;20692;-77
2021/12/04 18:30:57;;;;;;;6.87;6.10;;;5.80;99.90;;;;;;4972448;28;20207;-77
2021/12/04 18:33:28;;;;;;;6.70;5.90;;;5.80;99.90;;;;;;4951764;28;20697;-77
2021/12/04 18:35:56;;;;;;;8.93;6.27;;;5.80;99.90;;;;;;4950350;28;20584;-77
2021/12/04 18:38:24;;;;;;;8.10;6.30;;;5.80;99.90;;;;;;4955864;28;20207;-76
2021/12/04 18:40:52;;;;;;;8.57;6.73;;;5.90;99.90;;;;;;4959029;28;20657;-77
2021/12/04 18:43:22;;;;;;;9.00;6.80;;;5.80;99.90;;;;;;4952635;28;20235;-77
2021/12/04 18:45:50;;;;;;;10.77;8.57;;;5.80;99.90;;;;;;4949856;28;20226;-77
2021/12/04 18:48:19;;;;;;;12.87;8.67;;;5.80;99.90;;;;;;4950990;29;20226;-77
2021/12/04 18:50:49;;;;;;;11.03;8.50;;;5.90;99.90;;;;;;4966529;28;20208;-76
2021/12/04 18:53:16;;;;;;;10.10;8.97;;;5.90;99.90;;;;;;4954188;28;20223;-77
2021/12/04 18:55:44;;;;;;;11.80;9.40;;;5.90;99.90;;;;;;4956447;28;20221;-77
2021/12/04 18:58:11;;;;;;;13.27;11.07;;;5.90;99.90;;;;;;4953091;28;20212;-77
2021/12/04 19:00:43;;;;;;;15.20;11.90;;;5.90;99.90;;;;;;4953981;28;20673;-77
2021/12/04 19:03:12;;;;;;;17.47;12.33;;;6.00;99.90;;;;;;4957577;28;20204;-77
2021/12/04 19:05:44;;;;;;;16.30;13.43;;;6.00;99.90;;;;;;4956471;28;20244;-77
2021/12/04 19:08:15;;;;;;;21.20;15.27;;;6.00;99.90;;;;;;4975479;28;20213;-77
2021/12/04 19:10:42;;;;;;;20.80;16.37;;;6.00;99.90;;;;;;4975057;28;20205;-77
2021/12/04 19:13:10;;;;;;;23.73;16.83;;;6.00;99.90;;;;;;4956472;28;20228;-77
2021/12/04 19:15:40;;;;;;;22.47;16.17;;;6.00;99.90;;;;;;4954161;28;20221;-77
2021/12/04 19:18:09;;;;;;;23.00;16.77;;;6.00;99.90;;;;;;4974790;28;20208;-77
2021/12/04 19:20:39;;;;;;;22.20;17.40;;;5.90;99.90;;;;;;4964362;28;20688;-77
2021/12/04 19:23:08;;;;;;;19.90;16.23;;;6.00;99.90;;;;;;4951439;28;20209;-77
2021/12/04 19:25:35;;;;;;;14.30;11.87;;;6.00;99.90;;;;;;4956656;28;20230;-76
2021/12/04 19:28:07;;;;;;;16.57;13.77;;;6.50;99.90;;;;;;4966821;28;20223;-75
2021/12/04 19:30:38;;;;;;;19.57;12.90;;;6.50;99.90;;;;;;4950406;28;20213;-77
2021/12/04 19:33:16;;;;;;;16.93;13.70;;;6.70;99.90;;;;;;4954549;29;20219;-77
2021/12/04 19:52:46;;;;;;;13.70;8.30;;;5.90;99.90;;;;;;4965598;28;20222;-78
2021/12/04 19:55:22;;;;;;;12.50;6.60;;;5.80;99.90;;;;;;4953430;28;20228;-77
2021/12/04 19:58:13;;;;;;;12.50;6.17;;;5.80;99.90;;;;;;4958416;28;20207;-79
2021/12/04 20:00:48;;;;;;;11.00;5.67;;;5.70;99.90;;;;;;4977700;28;20200;-79
2021/12/04 20:03:22;;;;;;;11.93;5.73;;;5.70;99.90;;;;;;4949814;29;20200;-77
2021/12/04 20:06:13;;;;;;;14.03;6.30;;;5.70;99.90;;;;;;4953414;29;20247;-77
2021/12/04 20:14:08;;;;;;;12.50;7.90;;;5.60;99.90;;;;;;4956252;28;20214;-80
2021/12/04 20:16:36;;;;;;;11.13;8.50;;;5.60;99.90;;;;;;4946368;28;20230;-77
2021/12/04 20:19:08;;;;;;;12.33;9.27;;;5.50;99.90;;;;;;4955909;28;20209;-77
2021/12/04 20:21:46;;;;;;;16.07;9.17;;;5.60;99.90;;;;;;4953119;29;20182;-77
2021/12/04 20:24:13;;;;;;;19.67;10.33;;;5.60;99.90;;;;;;4958943;28;20204;-77
2021/12/04 20:26:45;;;;;;;16.00;11.73;;;5.50;99.90;;;;;;4952555;28;20241;-77
2021/12/04 20:32:11;;;;;;;17.77;12.00;;;5.50;99.90;;;;;;4946277;28;20706;-78
2021/12/04 20:52:56;;;;;;;20.20;10.70;;;5.50;99.90;;;;;;5121133;27;20205;-76
2021/12/04 21:10:01;;;;;;;21.17;12.10;;;5.40;99.90;;;;;;5113994;27;20205;-76
2021/12/04 21:51:17;;;;;;;22.97;14.37;;;5.40;99.90;;;;;;5105669;28;20208;-77
2021/12/04 21:53:45;;;;;;;22.50;15.33;;;5.30;99.90;;;;;;5106680;28;20209;-76
2021/12/04 21:56:24;;;;;;;19.40;14.43;;;5.40;99.90;;;;;;5111805;27;20221;-76
2021/12/04 22:10:03;;;;;;;17.70;11.73;;;5.30;99.90;;;;;;5098319;28;20526;-76
2021/12/04 22:12:35;;;;;;;18.13;11.40;;;5.30;99.90;;;;;;5109376;28;20202;-76
2021/12/04 22:15:17;;;;;;;19.50;11.53;;;5.30;99.90;;;;;;5102693;28;20209;-76
2021/12/04 22:18:07;;;;;;;17.13;11.03;;;5.40;99.90;;;;;;5103259;28;20216;-76
2021/12/04 22:23:49;;;;;;;17.93;10.20;;;5.30;99.90;;;;;;5070481;28;20193;-76
2021/12/04 23:00:32;;;;;;;14.83;6.17;;;5.40;99.90;;;;;;5073074;28;20200;-76
2021/12/04 23:03:36;;;;;;;11.47;5.73;;;5.40;99.90;;;;;;5106618;28;20200;-76
2021/12/04 23:11:45;;;;;;;10.63;5.13;;;5.30;99.90;;;;;;5048701;28;20203;-77
2021/12/04 23:14:17;;;;;;;9.57;4.83;;;5.30;99.90;;;;;;5060076;28;20197;-77
2021/12/04 23:16:59;;;;;;;10.47;4.40;;;5.30;99.90;;;;;;5042004;28;20666;-77
2021/12/04 23:32:12;;;;;;;9.60;4.00;;;5.30;99.90;;;;;;5057134;28;20722;-77
2021/12/04 23:34:03;;;;;;;8.23;4.17;;;5.30;99.90;;;;;;5043939;28;20194;-77
2021/12/04 23:36:45;;;;;;;12.77;4.27;;;5.30;99.90;;;;;;5037212;28;20207;-77
2021/12/04 23:39:33;;;;;;;8.80;3.83;;;5.30;99.90;;;;;;5044998;28;20233;-77
